Time;durP1;ratioP1;P1;durP2;ratioP2;P2;SDS_P1;SDS_P2;PMS_P1;PMS_P2;Temp;Humidity;BMP_temperature;BMP_pressure;BME280_temperature;BME280_humidity;BME280_pressure;Samples;Min_cycle;Max_cycle;Signal;HPM_P1;HPM_P2
2021/06/12 00:02:04;;;;;;;8.82;6.28;;;18.70;87.10;;;;;;5056618;28;20063;-88
2021/06/12 00:04:32;;;;;;;10.90;6.50;;;18.70;87.50;;;;;;5039958;28;20041;-88
2021/06/12 00:06:58;;;;;;;10.27;6.88;;;18.70;87.50;;;;;;5056570;28;20094;-88
2021/06/12 00:09:25;;;;;;;9.95;5.72;;;18.70;87.70;;;;;;5035199;28;20124;-87
2021/06/12 00:11:51;;;;;;;10.27;6.22;;;18.70;87.80;;;;;;5018808;28;20061;-87
2021/06/12 00:14:17;;;;;;;11.65;6.60;;;18.70;87.80;;;;;;5018772;28;20056;-87
2021/06/12 00:16:43;;;;;;;9.20;5.97;;;18.70;87.90;;;;;;5035249;28;20032;-88
2021/06/12 00:19:09;;;;;;;12.63;7.65;;;18.60;87.80;;;;;;5040830;28;20120;-89
2021/06/12 00:21:38;;;;;;;9.82;6.32;;;18.60;88.00;;;;;;5048525;28;20124;-87
2021/06/12 00:24:05;;;;;;;8.48;5.32;;;18.70;88.00;;;;;;5039006;28;20495;-86
2021/06/12 00:26:31;;;;;;;11.02;7.10;;;18.60;88.10;;;;;;5055679;28;20036;-87
2021/06/12 00:28:57;;;;;;;10.40;7.18;;;18.50;88.40;;;;;;5055372;28;20405;-88
2021/06/12 00:31:22;;;;;;;10.77;7.65;;;18.50;88.80;;;;;;5039048;28;20130;-88
2021/06/12 00:33:48;;;;;;;12.25;8.05;;;18.50;88.90;;;;;;5038754;28;20326;-88
2021/06/12 00:36:14;;;;;;;11.38;7.97;;;18.40;89.00;;;;;;5054732;28;20029;-88
2021/06/12 00:38:39;;;;;;;14.23;7.63;;;18.40;89.20;;;;;;5034737;28;20036;-86
2021/06/12 00:41:09;;;;;;;14.10;8.40;;;18.40;89.30;;;;;;5018978;28;20445;-87
2021/06/12 00:43:36;;;;;;;12.10;7.70;;;18.40;89.60;;;;;;5018665;28;20493;-88
2021/06/12 00:46:02;;;;;;;12.88;8.38;;;18.30;89.90;;;;;;5036088;28;20159;-88
2021/06/12 00:48:28;;;;;;;17.88;9.32;;;18.30;90.00;;;;;;5018541;28;20057;-88
2021/06/12 00:50:55;;;;;;;13.82;8.23;;;18.30;90.20;;;;;;5034971;28;20473;-89
2021/06/12 00:53:36;;;;;;;13.15;7.95;;;18.20;90.10;;;;;;5019311;28;20029;-89
2021/06/12 00:56:05;;;;;;;14.38;9.00;;;18.20;90.10;;;;;;5035064;28;20041;-88
2021/06/12 00:58:31;;;;;;;11.40;7.68;;;18.20;90.20;;;;;;5037363;28;20032;-89
2021/06/12 01:00:57;;;;;;;12.70;8.52;;;18.20;90.20;;;;;;5055375;28;20037;-88
2021/06/12 01:03:27;;;;;;;14.82;9.18;;;18.20;90.40;;;;;;5038530;28;20025;-90
2021/06/12 01:05:52;;;;;;;14.48;8.77;;;18.10;90.40;;;;;;5054636;28;20049;-89
2021/06/12 01:08:18;;;;;;;14.52;8.57;;;18.10;90.40;;;;;;5054532;28;20120;-88
2021/06/12 01:10:43;;;;;;;14.57;8.18;;;18.10;90.50;;;;;;5035986;28;20096;-88
2021/06/12 01:13:24;;;;;;;12.93;8.50;;;18.00;90.50;;;;;;5037673;28;20473;-87
2021/06/12 01:16:30;;;;;;;16.63;9.68;;;18.00;90.60;;;;;;5055357;28;20109;-85
2021/06/12 01:19:01;;;;;;;14.65;9.30;;;18.00;90.80;;;;;;5049803;28;20022;-85
2021/06/12 01:21:32;;;;;;;15.48;9.40;;;18.00;91.10;;;;;;5035507;28;20083;-87
2021/06/12 01:24:46;;;;;;;14.00;8.48;;;18.00;91.10;;;;;;5034032;28;20076;-86
2021/06/12 01:27:40;;;;;;;13.85;8.75;;;17.90;91.20;;;;;;5030372;28;20141;-88
2021/06/12 01:30:20;;;;;;;13.63;7.32;;;17.90;91.20;;;;;;5047919;28;20056;-86
2021/06/12 01:32:49;;;;;;;15.15;8.10;;;17.80;91.20;;;;;;5053745;28;20036;-87
2021/06/12 01:35:22;;;;;;;13.63;8.25;;;17.80;91.20;;;;;;5053834;28;20021;-87
2021/06/12 01:37:50;;;;;;;13.60;8.17;;;17.80;91.30;;;;;;5053517;28;20028;-87
2021/06/12 01:40:17;;;;;;;13.60;7.90;;;17.70;91.40;;;;;;5037695;28;20489;-87
2021/06/12 01:42:46;;;;;;;14.13;7.95;;;17.80;91.40;;;;;;5017419;28;20507;-84
2021/06/12 01:45:12;;;;;;;14.43;8.35;;;17.80;91.40;;;;;;5034046;28;20044;-91
2021/06/12 01:47:38;;;;;;;13.52;8.45;;;17.80;91.40;;;;;;5035220;28;20029;-89
2021/06/12 01:50:06;;;;;;;15.02;8.95;;;17.80;91.40;;;;;;5047894;28;20035;-89
2021/06/12 01:52:34;;;;;;;11.05;6.85;;;17.80;91.50;;;;;;5054753;28;20433;-92
2021/06/12 01:55:01;;;;;;;12.85;7.93;;;17.80;91.50;;;;;;5038435;28;20132;-90
2021/06/12 01:57:28;;;;;;;16.65;8.30;;;17.80;91.50;;;;;;5055088;28;20040;-88
2021/06/12 01:59:56;;;;;;;13.57;8.50;;;17.80;91.50;;;;;;5041205;28;20029;-89
2021/06/12 02:02:23;;;;;;;15.38;8.15;;;17.90;91.50;;;;;;5035307;28;20029;-88
2021/06/12 02:04:50;;;;;;;12.35;7.78;;;17.90;91.60;;;;;;5034162;28;20112;-87
2021/06/12 02:07:17;;;;;;;15.23;9.13;;;17.90;91.50;;;;;;5035454;28;20048;-87
2021/06/12 02:09:45;;;;;;;19.08;9.45;;;17.90;91.60;;;;;;5033235;28;20112;-86
2021/06/12 02:12:12;;;;;;;20.00;8.60;;;17.90;91.70;;;;;;5017463;28;20026;-87
2021/06/12 02:14:39;;;;;;;15.48;7.72;;;17.90;91.70;;;;;;5033608;28;20034;-87
2021/06/12 02:17:06;;;;;;;14.45;8.38;;;17.90;92.00;;;;;;5060395;28;20033;-85
2021/06/12 02:19:35;;;;;;;14.98;7.70;;;17.90;91.70;;;;;;5048360;28;20082;-90
2021/06/12 02:22:05;;;;;;;14.98;8.05;;;17.90;91.80;;;;;;5055289;28;20025;-90
2021/06/12 02:24:30;;;;;;;15.77;8.57;;;17.90;91.80;;;;;;5054459;28;20028;-92
2021/06/12 02:26:58;;;;;;;13.38;7.15;;;17.90;91.80;;;;;;5033670;28;20052;-89
2021/06/12 02:29:25;;;;;;;17.52;7.75;;;17.90;91.80;;;;;;5035244;28;20034;-91
2021/06/12 02:32:02;;;;;;;16.15;8.18;;;17.90;91.90;;;;;;5034560;28;20497;-89
2021/06/12 02:34:29;;;;;;;14.65;8.13;;;17.90;91.90;;;;;;5033922;28;20021;-90
2021/06/12 02:36:55;;;;;;;13.30;7.50;;;17.90;91.90;;;;;;5032066;28;20021;-89
2021/06/12 02:39:21;;;;;;;13.50;7.35;;;17.90;91.90;;;;;;5037707;28;20048;-90
2021/06/12 02:41:47;;;;;;;14.30;7.20;;;17.90;91.90;;;;;;5043053;28;20058;-91
2021/06/12 02:44:12;;;;;;;14.55;6.93;;;17.90;91.80;;;;;;5043710;28;20021;-90
2021/06/12 02:46:42;;;;;;;14.55;7.13;;;17.90;91.80;;;;;;5036769;28;20084;-92
2021/06/12 02:49:10;;;;;;;14.50;7.00;;;17.90;91.90;;;;;;5037342;28;20057;-92
2021/06/12 02:51:42;;;;;;;14.57;7.20;;;17.90;91.90;;;;;;5037564;28;20465;-93
2021/06/12 02:54:08;;;;;;;19.20;7.13;;;17.90;91.90;;;;;;5054713;28;20496;-92
2021/06/12 02:56:35;;;;;;;16.48;7.10;;;17.90;91.90;;;;;;5033626;28;20037;-93
2021/06/12 02:59:05;;;;;;;15.90;6.63;;;17.90;91.90;;;;;;5017537;28;20396;-92
2021/06/12 03:01:32;;;;;;;16.38;8.05;;;17.90;91.90;;;;;;5035251;28;20188;-95
2021/06/12 03:03:59;;;;;;;13.10;6.82;;;17.90;91.90;;;;;;5034014;28;20112;-92
2021/06/12 03:06:26;;;;;;;14.73;7.10;;;17.90;91.90;;;;;;5039873;28;20053;-92
2021/06/12 03:08:53;;;;;;;13.55;6.18;;;17.90;91.90;;;;;;5033324;28;20021;-93
2021/06/12 03:11:21;;;;;;;15.07;7.03;;;17.90;91.80;;;;;;5016382;28;20501;-91
2021/06/12 03:13:50;;;;;;;15.00;7.60;;;17.90;91.90;;;;;;5033351;28;20034;-93
2021/06/12 03:16:17;;;;;;;16.13;7.57;;;17.90;91.90;;;;;;5042577;28;20029;-92
2021/06/12 03:18:47;;;;;;;19.27;8.07;;;17.90;91.90;;;;;;5036162;28;20053;-87
2021/06/12 03:21:14;;;;;;;14.73;6.50;;;17.90;91.90;;;;;;5032603;28;20037;-91
2021/06/12 03:23:41;;;;;;;11.60;6.35;;;17.90;91.90;;;;;;5017179;28;20026;-95
2021/06/12 03:26:09;;;;;;;13.02;7.35;;;17.90;91.90;;;;;;5033368;28;20033;-92
2021/06/12 03:28:36;;;;;;;14.30;7.30;;;17.90;91.90;;;;;;5034534;28;20458;-91
2021/06/12 03:31:03;;;;;;;13.57;6.97;;;17.90;91.90;;;;;;5033314;28;20055;-92
2021/06/12 03:33:29;;;;;;;16.52;7.95;;;17.90;91.90;;;;;;5034106;28;20060;-94
2021/06/12 03:35:56;;;;;;;17.98;7.38;;;18.00;91.90;;;;;;5039345;28;20032;-94
2021/06/12 03:38:22;;;;;;;13.05;6.97;;;18.00;91.90;;;;;;5036064;28;20388;-92
2021/06/12 03:40:49;;;;;;;12.35;7.22;;;18.00;91.90;;;;;;5051839;28;20136;-91
2021/06/12 03:43:15;;;;;;;13.52;7.55;;;18.00;91.90;;;;;;5035819;28;20033;-87
2021/06/12 03:45:42;;;;;;;17.17;7.60;;;18.00;92.00;;;;;;5049342;28;20072;-88
2021/06/12 03:48:10;;;;;;;12.57;6.90;;;18.00;92.00;;;;;;5034371;28;20044;-88
2021/06/12 03:50:37;;;;;;;15.98;7.97;;;18.00;92.00;;;;;;5048049;28;20022;-88
2021/06/12 03:53:04;;;;;;;14.57;7.43;;;18.10;92.00;;;;;;5032305;28;20129;-87
2021/06/12 03:55:30;;;;;;;14.30;7.35;;;18.00;92.10;;;;;;5051954;28;20384;-88
2021/06/12 03:57:56;;;;;;;14.32;7.43;;;18.00;92.00;;;;;;5052265;28;20025;-87
2021/06/12 04:00:22;;;;;;;16.52;6.55;;;18.00;92.00;;;;;;5033691;28;20384;-88
2021/06/12 04:02:50;;;;;;;19.08;7.05;;;18.00;92.10;;;;;;5035299;28;20025;-89
2021/06/12 04:05:16;;;;;;;17.08;7.57;;;18.00;92.10;;;;;;5050800;28;20028;-85
2021/06/12 04:07:42;;;;;;;14.82;6.70;;;18.10;92.10;;;;;;5051462;28;20124;-88
2021/06/12 04:10:09;;;;;;;15.98;8.35;;;18.10;92.30;;;;;;5051546;28;20059;-90
2021/06/12 04:12:35;;;;;;;12.95;7.07;;;18.10;92.10;;;;;;5051546;28;20081;-89
2021/06/12 04:15:01;;;;;;;16.52;6.60;;;18.10;92.10;;;;;;5034854;28;20060;-88
2021/06/12 04:17:27;;;;;;;14.50;7.93;;;18.10;92.10;;;;;;5031465;28;20113;-86
2021/06/12 04:19:53;;;;;;;12.38;6.38;;;18.10;92.00;;;;;;5032063;28;20536;-86
2021/06/12 04:22:19;;;;;;;14.95;7.03;;;18.20;92.00;;;;;;5015798;28;20034;-88
2021/06/12 04:24:44;;;;;;;16.90;7.80;;;18.20;92.10;;;;;;5021808;28;20029;-91
2021/06/12 04:27:10;;;;;;;18.75;7.88;;;18.20;92.10;;;;;;5019891;28;20140;-91
2021/06/12 04:29:36;;;;;;;15.70;6.88;;;18.20;92.10;;;;;;5036993;28;20033;-89
2021/06/12 04:32:02;;;;;;;13.02;7.18;;;18.20;92.10;;;;;;5036545;28;20040;-89
2021/06/12 04:34:28;;;;;;;11.98;6.97;;;18.20;92.10;;;;;;5030359;28;20044;-87
2021/06/12 04:36:54;;;;;;;14.95;7.63;;;18.30;92.10;;;;;;5055881;28;20037;-89
2021/06/12 04:39:19;;;;;;;15.38;7.15;;;18.30;92.00;;;;;;5057308;28;20503;-90
2021/06/12 04:41:46;;;;;;;19.92;8.25;;;18.30;92.10;;;;;;5073746;28;20409;-88
2021/06/12 04:44:12;;;;;;;15.18;7.68;;;18.30;92.30;;;;;;5060024;28;20028;-87
2021/06/12 04:46:39;;;;;;;15.60;8.20;;;18.30;92.00;;;;;;5054652;28;20041;-87
2021/06/12 04:49:06;;;;;;;14.88;8.50;;;18.30;92.00;;;;;;5056137;28;20040;-86
2021/06/12 04:51:31;;;;;;;13.52;8.50;;;18.30;92.00;;;;;;5037844;28;20033;-85
2021/06/12 04:53:57;;;;;;;18.73;9.38;;;18.30;91.90;;;;;;5049333;28;20033;-85
2021/06/12 04:56:23;;;;;;;18.90;10.40;;;18.40;92.00;;;;;;5034570;28;20554;-86
2021/06/12 04:58:49;;;;;;;16.13;9.50;;;18.40;92.00;;;;;;5034904;28;20026;-86
2021/06/12 05:01:14;;;;;;;17.20;10.02;;;18.30;92.00;;;;;;5034101;28;20553;-85
2021/06/12 05:03:40;;;;;;;15.13;9.95;;;18.30;92.00;;;;;;5039154;28;20035;-88
2021/06/12 05:06:06;;;;;;;16.02;10.77;;;18.30;92.00;;;;;;5038142;28;20511;-88
2021/06/12 05:08:31;;;;;;;17.45;10.90;;;18.20;92.00;;;;;;5038223;28;20048;-88
2021/06/12 05:10:57;;;;;;;18.42;10.30;;;18.20;92.00;;;;;;5038244;28;20025;-88
2021/06/12 05:13:23;;;;;;;19.52;11.65;;;18.30;92.10;;;;;;5035988;28;20029;-87
2021/06/12 05:15:49;;;;;;;22.77;11.40;;;18.20;92.00;;;;;;5018789;28;20022;-90
2021/06/12 05:18:16;;;;;;;15.43;10.43;;;18.20;92.10;;;;;;5026274;28;20396;-87
2021/06/12 05:20:42;;;;;;;17.77;12.75;;;18.30;92.10;;;;;;5038074;28;20029;-87
2021/06/12 05:23:08;;;;;;;21.50;12.90;;;18.30;92.00;;;;;;5054670;28;20036;-87
2021/06/12 05:25:35;;;;;;;21.63;13.02;;;18.20;92.00;;;;;;5054674;28;20037;-87
2021/06/12 05:28:01;;;;;;;19.63;11.93;;;18.30;92.30;;;;;;5038719;28;20055;-87
2021/06/12 05:30:26;;;;;;;17.52;11.70;;;18.30;92.00;;;;;;5055398;28;20021;-88
2021/06/12 05:32:53;;;;;;;17.55;12.18;;;18.30;92.00;;;;;;5037805;28;20436;-87
2021/06/12 05:35:19;;;;;;;21.17;11.82;;;18.30;92.00;;;;;;5037609;28;20060;-87
2021/06/12 05:37:45;;;;;;;18.67;11.35;;;18.30;92.00;;;;;;5035956;28;20124;-86
2021/06/12 05:40:12;;;;;;;19.52;11.68;;;18.40;92.10;;;;;;5035617;28;20493;-89
2021/06/12 05:42:38;;;;;;;16.73;11.38;;;18.40;92.00;;;;;;5035313;28;20025;-88
2021/06/12 05:45:06;;;;;;;15.88;10.63;;;18.40;92.00;;;;;;5031825;28;20092;-86
2021/06/12 05:47:32;;;;;;;15.88;9.80;;;18.40;91.90;;;;;;5050783;28;20021;-85
2021/06/12 05:49:58;;;;;;;18.40;11.30;;;18.50;91.90;;;;;;5033354;28;20080;-86
2021/06/12 05:52:23;;;;;;;20.92;11.30;;;18.50;91.80;;;;;;5016121;28;20087;-85
2021/06/12 05:54:49;;;;;;;17.67;10.77;;;18.50;91.70;;;;;;5025751;28;20029;-83
2021/06/12 05:57:15;;;;;;;18.80;9.73;;;18.50;91.60;;;;;;5033660;28;20465;-85
2021/06/12 05:59:41;;;;;;;16.67;9.75;;;18.50;91.50;;;;;;5033874;28;20026;-87
2021/06/12 06:02:07;;;;;;;14.55;8.38;;;18.50;91.40;;;;;;5016283;28;20026;-85
2021/06/12 06:04:32;;;;;;;17.65;9.18;;;18.60;91.40;;;;;;5022598;28;20121;-85
2021/06/12 06:06:58;;;;;;;17.23;8.90;;;18.60;91.10;;;;;;5033031;28;20167;-87
2021/06/12 06:09:24;;;;;;;15.88;8.60;;;18.60;91.10;;;;;;5033276;28;20098;-82
2021/06/12 06:11:49;;;;;;;13.48;8.30;;;18.70;91.00;;;;;;5034063;28;20022;-83
2021/06/12 06:14:15;;;;;;;13.48;7.93;;;18.70;90.90;;;;;;5053606;28;20029;-81
2021/06/12 06:16:41;;;;;;;15.02;7.20;;;18.80;90.90;;;;;;5032882;28;20425;-82
2021/06/12 06:19:09;;;;;;;13.90;7.68;;;18.90;90.80;;;;;;5033665;28;20029;-82
2021/06/12 06:21:34;;;;;;;15.18;7.65;;;18.90;90.60;;;;;;5045324;28;20380;-82
2021/06/12 06:24:00;;;;;;;12.27;7.20;;;19.00;90.50;;;;;;5036775;28;20117;-81
2021/06/12 06:26:26;;;;;;;13.02;7.88;;;19.00;90.20;;;;;;5016476;28;20124;-81
2021/06/12 06:28:51;;;;;;;14.55;7.88;;;19.00;90.10;;;;;;5016024;28;20473;-82
2021/06/12 06:31:17;;;;;;;14.10;7.65;;;19.00;90.10;;;;;;5020508;28;20108;-81
2021/06/12 06:33:43;;;;;;;13.18;7.70;;;19.00;90.00;;;;;;4999564;28;20021;-81
2021/06/12 06:36:09;;;;;;;13.77;6.85;;;19.10;89.70;;;;;;5015897;28;20041;-81
2021/06/12 06:38:34;;;;;;;13.43;7.55;;;19.10;89.70;;;;;;5032617;28;20026;-81
2021/06/12 06:41:00;;;;;;;18.17;7.57;;;19.10;89.10;;;;;;5019721;28;20444;-80
2021/06/12 06:43:26;;;;;;;12.85;6.32;;;19.10;88.70;;;;;;5052534;28;20029;-80
2021/06/12 06:45:52;;;;;;;13.52;6.70;;;19.10;88.60;;;;;;5051619;28;20021;-81
2021/06/12 06:48:17;;;;;;;9.85;5.22;;;19.20;88.30;;;;;;5035832;28;20116;-80
2021/06/12 06:50:44;;;;;;;12.10;6.13;;;19.20;87.80;;;;;;5049322;28;20465;-81
2021/06/12 06:53:10;;;;;;;10.18;5.32;;;19.20;87.20;;;;;;5032150;28;20057;-81
2021/06/12 06:55:36;;;;;;;11.15;5.75;;;19.30;87.00;;;;;;5033596;28;20060;-81
2021/06/12 06:58:02;;;;;;;11.82;5.53;;;19.40;86.20;;;;;;5015543;28;20037;-80
2021/06/12 07:00:28;;;;;;;12.27;5.78;;;19.30;85.60;;;;;;5015793;28;20466;-82
2021/06/12 07:02:54;;;;;;;10.13;4.70;;;19.40;85.40;;;;;;5052076;28;20028;-82
2021/06/12 07:05:21;;;;;;;8.98;4.10;;;19.50;85.20;;;;;;5035156;28;20017;-81
2021/06/12 07:07:47;;;;;;;12.32;4.85;;;19.60;84.20;;;;;;5053317;28;20037;-81
2021/06/12 07:10:13;;;;;;;10.25;4.75;;;19.70;84.00;;;;;;5051623;28;20353;-81
2021/06/12 07:12:39;;;;;;;8.40;4.05;;;19.70;83.00;;;;;;5033132;28;20025;-81
2021/06/12 07:15:07;;;;;;;7.55;3.75;;;19.80;82.70;;;;;;5015014;28;20451;-81
2021/06/12 07:17:33;;;;;;;6.68;2.92;;;19.80;81.90;;;;;;5036103;28;20025;-81
2021/06/12 07:19:58;;;;;;;9.35;3.45;;;19.90;81.20;;;;;;5029993;28;20025;-82
2021/06/12 07:22:24;;;;;;;5.88;2.70;;;19.90;80.20;;;;;;5050016;28;20485;-81
2021/06/12 07:24:50;;;;;;;6.57;2.88;;;20.00;79.30;;;;;;5051706;28;20041;-82
2021/06/12 07:27:16;;;;;;;5.28;2.67;;;20.10;79.20;;;;;;5034817;28;20128;-82
2021/06/12 07:29:44;;;;;;;6.20;2.85;;;20.30;79.40;;;;;;5050477;28;20094;-80
2021/06/12 07:32:10;;;;;;;5.93;2.55;;;20.40;77.70;;;;;;5032190;28;20030;-81
2021/06/12 07:34:43;;;;;;;7.32;3.00;;;20.40;77.30;;;;;;5031422;28;20136;-81
2021/06/12 07:37:09;;;;;;;7.32;2.70;;;20.50;76.10;;;;;;5031488;28;20334;-81
2021/06/12 07:39:34;;;;;;;7.10;2.83;;;20.60;76.50;;;;;;5032087;28;20077;-81
2021/06/12 07:42:01;;;;;;;5.00;1.73;;;20.70;74.80;;;;;;5040988;28;20127;-82
2021/06/12 07:44:30;;;;;;;5.88;2.03;;;20.70;73.20;;;;;;5030137;28;20559;-81
2021/06/12 07:46:55;;;;;;;5.03;1.63;;;20.80;73.20;;;;;;5040140;28;20039;-82
2021/06/12 07:49:21;;;;;;;5.70;2.58;;;20.80;72.50;;;;;;5041744;28;20111;-82
2021/06/12 07:51:47;;;;;;;5.95;1.75;;;20.80;70.10;;;;;;5029344;28;20412;-81
2021/06/12 07:54:13;;;;;;;5.10;1.95;;;20.80;70.20;;;;;;5041524;28;20474;-81
2021/06/12 07:56:38;;;;;;;6.40;2.30;;;20.90;70.50;;;;;;5049896;28;20029;-81
2021/06/12 07:59:04;;;;;;;6.55;2.00;;;20.90;70.60;;;;;;5043073;28;20397;-81
2021/06/12 08:01:30;;;;;;;5.85;2.00;;;20.90;69.80;;;;;;5019531;28;20109;-81
2021/06/12 08:03:56;;;;;;;7.25;1.88;;;21.00;69.20;;;;;;5036018;28;20072;-81
2021/06/12 08:06:21;;;;;;;3.80;1.88;;;21.00;69.40;;;;;;5036985;28;20037;-82
2021/06/12 08:08:47;;;;;;;6.82;1.75;;;21.00;69.10;;;;;;5053486;28;20033;-82
2021/06/12 08:11:15;;;;;;;7.10;1.70;;;21.10;68.50;;;;;;5055830;28;20068;-81
2021/06/12 08:13:41;;;;;;;6.10;2.08;;;21.10;67.90;;;;;;5053350;28;20021;-82
2021/06/12 08:16:07;;;;;;;6.28;2.05;;;21.10;66.70;;;;;;5029386;28;20512;-82
2021/06/12 08:18:33;;;;;;;7.63;2.13;;;21.10;66.60;;;;;;5027132;28;20104;-81
2021/06/12 08:21:00;;;;;;;4.00;1.60;;;21.20;66.70;;;;;;5054789;28;20040;-81
2021/06/12 08:23:29;;;;;;;5.72;1.10;;;21.20;65.70;;;;;;5045024;28;20047;-82
2021/06/12 08:25:55;;;;;;;8.68;2.10;;;21.30;65.60;;;;;;5034605;28;20033;-82
2021/06/12 08:28:21;;;;;;;5.63;1.85;;;21.40;64.40;;;;;;5035342;28;20026;-83
2021/06/12 08:30:46;;;;;;;5.07;1.50;;;21.50;64.40;;;;;;5047571;28;20116;-83
2021/06/12 08:33:12;;;;;;;4.90;1.40;;;21.50;63.40;;;;;;5042982;28;20384;-84
2021/06/12 08:35:39;;;;;;;4.15;1.20;;;21.50;63.60;;;;;;5033849;28;20091;-84
2021/06/12 08:38:06;;;;;;;6.38;1.30;;;21.50;62.40;;;;;;5048073;28;20018;-83
2021/06/12 08:40:33;;;;;;;7.65;2.10;;;21.50;62.10;;;;;;5037720;28;20052;-83
2021/06/12 08:42:59;;;;;;;4.65;1.58;;;21.40;61.90;;;;;;5038076;28;20025;-83
2021/06/12 08:45:30;;;;;;;8.10;1.70;;;21.40;61.50;;;;;;5054272;28;20104;-84
2021/06/12 08:47:57;;;;;;;6.75;1.50;;;21.40;60.30;;;;;;5054420;28;20025;-82
2021/06/12 08:50:24;;;;;;;6.53;1.45;;;21.30;60.80;;;;;;5041241;28;20029;-84
2021/06/12 08:52:54;;;;;;;6.15;1.75;;;21.30;60.80;;;;;;5037231;28;20455;-83
2021/06/12 08:55:20;;;;;;;6.78;1.83;;;21.30;60.50;;;;;;5040218;28;20462;-82
2021/06/12 08:57:46;;;;;;;4.82;1.50;;;21.30;60.90;;;;;;5042300;28;20036;-83
2021/06/12 09:00:13;;;;;;;7.20;1.83;;;21.40;60.50;;;;;;5045171;28;20036;-82
2021/06/12 09:03:04;;;;;;;4.75;1.73;;;21.40;61.50;;;;;;5048490;28;20071;-83
2021/06/12 09:05:53;;;;;;;4.15;1.42;;;21.50;59.90;;;;;;5052870;28;20068;-83
2021/06/12 09:08:20;;;;;;;6.18;1.50;;;21.50;60.70;;;;;;5051570;28;20573;-83
2021/06/12 09:10:52;;;;;;;6.97;1.65;;;21.60;59.90;;;;;;5053358;28;20112;-83
2021/06/12 09:13:45;;;;;;;8.05;1.98;;;21.60;60.10;;;;;;5055422;28;20064;-82
2021/06/12 09:16:31;;;;;;;3.67;1.20;;;21.70;60.20;;;;;;5046159;28;20448;-82
2021/06/12 09:19:08;;;;;;;5.00;1.65;;;21.70;58.20;;;;;;5035686;28;20034;-83
2021/06/12 09:21:35;;;;;;;8.70;1.70;;;21.70;58.30;;;;;;5033899;28;20079;-83
2021/06/12 09:24:04;;;;;;;8.63;2.00;;;21.70;58.10;;;;;;5035884;28;20037;-83
2021/06/12 09:26:43;;;;;;;6.00;1.85;;;21.70;58.10;;;;;;5053646;28;20044;-86
2021/06/12 09:29:10;;;;;;;6.40;2.00;;;21.80;58.30;;;;;;5054619;28;20025;-85
2021/06/12 09:31:45;;;;;;;3.95;1.40;;;21.90;58.40;;;;;;5054269;28;20033;-85
2021/06/12 09:34:12;;;;;;;7.25;1.52;;;21.90;58.50;;;;;;5036138;28;20029;-86
2021/06/12 09:36:39;;;;;;;7.22;1.50;;;21.90;58.50;;;;;;5039845;28;20036;-85
2021/06/12 09:39:15;;;;;;;5.18;1.92;;;22.00;58.70;;;;;;5033627;28;20029;-85
2021/06/12 09:41:43;;;;;;;5.72;1.65;;;22.10;58.80;;;;;;5041863;28;20091;-86
2021/06/12 09:44:10;;;;;;;7.82;1.73;;;22.10;58.80;;;;;;5051735;28;20024;-83
2021/06/12 09:46:45;;;;;;;7.28;2.03;;;22.10;58.70;;;;;;5066756;28;20068;-84
2021/06/12 09:49:15;;;;;;;10.48;1.45;;;22.20;58.90;;;;;;5036792;28;20039;-85
2021/06/12 09:52:01;;;;;;;6.38;2.00;;;22.30;58.70;;;;;;5034041;28;20048;-83
2021/06/12 09:54:39;;;;;;;4.25;1.60;;;22.30;58.40;;;;;;5033019;28;20021;-83
2021/06/12 09:57:06;;;;;;;8.00;1.77;;;22.30;58.30;;;;;;5033612;28;20103;-84
2021/06/12 09:59:46;;;;;;;5.35;1.75;;;22.40;58.00;;;;;;5034653;28;20466;-84
2021/06/12 10:02:14;;;;;;;4.75;1.67;;;22.40;57.80;;;;;;5034383;28;20026;-84
2021/06/12 10:04:56;;;;;;;5.22;1.25;;;22.40;57.60;;;;;;5033343;28;20024;-84
2021/06/12 10:07:23;;;;;;;6.20;1.40;;;22.50;57.60;;;;;;5049200;28;20052;-85
2021/06/12 10:09:50;;;;;;;7.32;1.48;;;22.50;57.60;;;;;;5036088;28;20029;-86
2021/06/12 10:12:16;;;;;;;6.03;1.40;;;22.60;57.50;;;;;;5053212;28;20028;-83
2021/06/12 10:14:45;;;;;;;4.45;1.60;;;22.60;57.20;;;;;;5053322;28;20128;-85
2021/06/12 10:17:13;;;;;;;9.85;1.52;;;22.60;57.10;;;;;;5053226;28;20021;-86
2021/06/12 10:19:41;;;;;;;4.68;1.27;;;22.60;56.90;;;;;;5037177;28;20116;-85
2021/06/12 10:22:10;;;;;;;6.53;1.60;;;22.60;57.00;;;;;;5032338;28;20062;-85
2021/06/12 10:24:36;;;;;;;8.25;2.42;;;22.60;57.00;;;;;;5034415;28;20021;-84
2021/06/12 10:27:03;;;;;;;4.90;1.20;;;22.70;56.90;;;;;;5034151;28;20044;-85
2021/06/12 10:29:29;;;;;;;6.90;2.00;;;22.70;56.50;;;;;;5032862;28;20370;-85
2021/06/12 10:31:58;;;;;;;5.30;1.15;;;22.70;56.10;;;;;;5016277;28;20036;-86
2021/06/12 10:34:28;;;;;;;6.30;2.00;;;22.80;56.20;;;;;;5050845;28;20131;-85
2021/06/12 10:36:58;;;;;;;4.15;1.33;;;22.80;55.70;;;;;;5052574;28;20384;-85
2021/06/12 10:39:29;;;;;;;5.45;1.27;;;22.80;55.40;;;;;;5052624;28;20021;-86
2021/06/12 10:42:13;;;;;;;4.97;1.23;;;22.90;55.60;;;;;;5052470;28;20051;-85
2021/06/12 10:44:41;;;;;;;8.80;1.38;;;22.90;55.60;;;;;;5052834;28;20119;-85
2021/06/12 10:47:36;;;;;;;6.72;1.70;;;23.00;55.70;;;;;;5035130;28;20040;-86
2021/06/12 10:50:29;;;;;;;3.05;1.15;;;23.10;55.20;;;;;;5035600;28;20052;-84
2021/06/12 10:53:19;;;;;;;7.07;1.48;;;23.10;54.80;;;;;;5035185;28;20057;-85
2021/06/12 10:55:50;;;;;;;5.30;1.75;;;23.20;54.60;;;;;;5052039;28;20017;-86
2021/06/12 10:58:34;;;;;;;9.95;1.40;;;23.20;54.50;;;;;;5052675;28;20115;-84
2021/06/12 11:01:08;;;;;;;5.60;1.35;;;23.20;54.10;;;;;;5052191;28;20032;-83
2021/06/12 11:06:49;;;;;;;6.32;1.40;;;23.40;53.60;;;;;;5033550;28;20557;-85
2021/06/12 11:09:17;;;;;;;6.53;1.60;;;23.40;53.60;;;;;;5034452;28;20108;-85
2021/06/12 11:11:55;;;;;;;5.65;1.35;;;23.50;53.60;;;;;;5033044;28;20035;-84
2021/06/12 11:14:23;;;;;;;6.13;1.25;;;23.60;53.30;;;;;;5034271;28;20390;-86
2021/06/12 11:17:10;;;;;;;6.25;1.50;;;23.70;53.00;;;;;;5032492;28;20363;-85
2021/06/12 11:19:50;;;;;;;6.07;1.15;;;23.70;52.60;;;;;;5043092;28;20134;-87
2021/06/12 11:22:36;;;;;;;5.45;1.40;;;23.80;52.70;;;;;;5047230;28;20032;-85
2021/06/12 11:25:08;;;;;;;4.75;1.05;;;23.80;52.40;;;;;;5052071;28;20036;-86
2021/06/12 11:27:35;;;;;;;6.05;1.20;;;23.80;52.20;;;;;;5053108;28;20037;-85
2021/06/12 11:30:13;;;;;;;4.97;1.25;;;23.80;51.90;;;;;;5051966;28;20389;-84
2021/06/12 11:32:42;;;;;;;5.20;1.25;;;23.80;51.80;;;;;;5051709;28;20059;-86
2021/06/12 11:35:08;;;;;;;4.85;1.20;;;23.80;51.40;;;;;;5032502;28;20036;-85
2021/06/12 11:37:34;;;;;;;7.40;1.38;;;23.90;51.70;;;;;;5031123;28;20041;-86
2021/06/12 11:40:03;;;;;;;5.40;1.48;;;23.90;51.70;;;;;;5033436;28;20022;-86
2021/06/12 11:42:45;;;;;;;3.75;1.42;;;23.90;51.70;;;;;;5033145;28;20017;-84
2021/06/12 11:45:25;;;;;;;5.18;1.00;;;23.80;51.30;;;;;;5032075;28;20029;-85
2021/06/12 11:47:53;;;;;;;3.47;0.88;;;23.90;51.20;;;;;;5027232;28;20095;-87
2021/06/12 11:50:30;;;;;;;5.75;1.20;;;24.00;51.10;;;;;;5034087;28;20112;-84
2021/06/12 11:52:57;;;;;;;4.15;1.52;;;24.00;50.90;;;;;;5031622;28;20088;-86
2021/06/12 11:55:28;;;;;;;4.53;1.08;;;24.10;50.80;;;;;;5031460;28;20021;-86
2021/06/12 11:57:55;;;;;;;4.03;1.08;;;24.40;50.60;;;;;;5031568;28;20028;-85
2021/06/12 12:00:30;;;;;;;8.13;1.45;;;24.60;50.10;;;;;;5016152;28;20029;-86
2021/06/12 12:03:10;;;;;;;6.18;1.27;;;24.60;49.90;;;;;;5031114;28;20032;-85
2021/06/12 12:05:47;;;;;;;4.90;1.10;;;24.50;49.90;;;;;;5014167;28;20049;-87
2021/06/12 12:08:22;;;;;;;5.35;1.30;;;24.50;50.00;;;;;;5044669;28;20029;-88
2021/06/12 12:10:54;;;;;;;5.45;1.27;;;24.50;50.10;;;;;;5050684;28;20025;-86
2021/06/12 12:13:38;;;;;;;6.63;1.13;;;24.50;50.10;;;;;;5050916;28;20079;-87
2021/06/12 12:16:25;;;;;;;3.80;1.05;;;24.50;50.40;;;;;;5050318;28;20112;-85
2021/06/12 12:18:54;;;;;;;5.93;1.23;;;24.60;50.50;;;;;;5051154;28;20485;-84
2021/06/12 12:21:38;;;;;;;4.07;1.27;;;24.80;50.50;;;;;;5052318;28;20368;-86
2021/06/12 12:24:12;;;;;;;6.68;1.45;;;25.00;50.00;;;;;;5049220;28;20053;-86
2021/06/12 12:26:54;;;;;;;4.88;1.13;;;25.00;49.80;;;;;;5051287;28;20048;-85
2021/06/12 12:29:23;;;;;;;6.95;1.38;;;25.10;49.70;;;;;;5051135;28;20021;-86
2021/06/12 12:31:49;;;;;;;5.70;1.23;;;25.10;49.70;;;;;;5051214;28;20485;-86
2021/06/12 12:34:38;;;;;;;5.38;1.60;;;25.10;49.60;;;;;;5036281;28;20053;-85
2021/06/12 12:37:10;;;;;;;6.40;1.23;;;25.30;49.60;;;;;;5030763;28;20022;-85
2021/06/12 12:39:47;;;;;;;5.93;1.20;;;25.40;49.10;;;;;;5031431;28;20119;-86
2021/06/12 12:42:24;;;;;;;6.88;1.58;;;25.70;48.80;;;;;;5043523;28;20057;-86
2021/06/12 12:44:53;;;;;;;6.60;1.30;;;26.00;48.30;;;;;;5054072;28;20021;-85
2021/06/12 12:47:21;;;;;;;3.13;0.70;;;26.20;47.80;;;;;;5058109;28;20138;-85
2021/06/12 12:49:47;;;;;;;3.83;0.70;;;26.30;47.30;;;;;;5038982;28;20432;-86
2021/06/12 12:52:22;;;;;;;5.82;1.20;;;26.40;47.00;;;;;;5054773;28;20040;-87
2021/06/12 12:55:08;;;;;;;6.80;1.50;;;26.50;47.30;;;;;;5055632;28;20083;-88